sensor_id;sensor_type;location;lat;lon;timestamp;pressure;altitude;pressure_sealevel;temperature;humidity
14067;BME280;7108;42.684;23.350;2022-07-12T00:01:07;95760.16;;;16.12;69.88
14067;BME280;7108;42.684;23.350;2022-07-12T00:03:33;95762.88;;;16.12;70.27
14067;BME280;7108;42.684;23.350;2022-07-12T00:06:00;95768.31;;;16.15;72.02
14067;BME280;7108;42.684;23.350;2022-07-12T00:08:25;95772.97;;;16.11;72.91
14067;BME280;7108;42.684;23.350;2022-07-12T00:10:51;95765.13;;;15.99;74.01
14067;BME280;7108;42.684;23.350;2022-07-12T00:13:17;95766.28;;;15.98;73.48
14067;BME280;7108;42.684;23.350;2022-07-12T00:15:43;95773.28;;;15.99;73.99
14067;BME280;7108;42.684;23.350;2022-07-12T00:18:08;95761.56;;;15.92;73.19
14067;BME280;7108;42.684;23.350;2022-07-12T00:20:35;95769.34;;;15.93;74.50
14067;BME280;7108;42.684;23.350;2022-07-12T00:23:01;95770.50;;;15.92;75.60
14067;BME280;7108;42.684;23.350;2022-07-12T00:25:27;95767.41;;;15.94;76.03
14067;BME280;7108;42.684;23.350;2022-07-12T00:27:53;95765.44;;;15.87;75.50
14067;BME280;7108;42.684;23.350;2022-07-12T00:30:18;95764.25;;;15.85;75.64
14067;BME280;7108;42.684;23.350;2022-07-12T00:32:44;95771.56;;;15.77;76.48
14067;BME280;7108;42.684;23.350;2022-07-12T00:35:10;95773.94;;;15.82;76.86
14067;BME280;7108;42.684;23.350;2022-07-12T00:37:35;95767.25;;;15.73;77.91
14067;BME280;7108;42.684;23.350;2022-07-12T00:40:04;95776.19;;;15.77;78.50
14067;BME280;7108;42.684;23.350;2022-07-12T00:42:30;95776.19;;;15.77;79.21
14067;BME280;7108;42.684;23.350;2022-07-12T00:44:57;95753.19;;;15.61;79.69
14067;BME280;7108;42.684;23.350;2022-07-12T00:47:33;95759.84;;;15.67;80.31
14067;BME280;7108;42.684;23.350;2022-07-12T00:50:07;95763.31;;;15.67;82.07
14067;BME280;7108;42.684;23.350;2022-07-12T00:52:33;95754.72;;;15.58;82.63
14067;BME280;7108;42.684;23.350;2022-07-12T00:54:58;95757.06;;;15.60;82.51
14067;BME280;7108;42.684;23.350;2022-07-12T00:57:24;95758.16;;;15.52;84.68
14067;BME280;7108;42.684;23.350;2022-07-12T00:59:49;95746.47;;;15.44;85.96
14067;BME280;7108;42.684;23.350;2022-07-12T01:02:15;95750.66;;;15.38;86.19
14067;BME280;7108;42.684;23.350;2022-07-12T01:04:42;95751.81;;;15.37;87.13
14067;BME280;7108;42.684;23.350;2022-07-12T01:07:09;95754.13;;;15.35;88.35
14067;BME280;7108;42.684;23.350;2022-07-12T01:09:35;95763.41;;;15.31;90.26
14067;BME280;7108;42.684;23.350;2022-07-12T01:12:00;95752.53;;;15.31;89.57
14067;BME280;7108;42.684;23.350;2022-07-12T01:14:27;95758.78;;;15.35;89.36
14067;BME280;7108;42.684;23.350;2022-07-12T01:16:53;95764.97;;;15.35;89.59
14067;BME280;7108;42.684;23.350;2022-07-12T01:19:20;95768.88;;;15.38;90.49
14067;BME280;7108;42.684;23.350;2022-07-12T01:21:47;95770.81;;;15.37;90.63
14067;BME280;7108;42.684;23.350;2022-07-12T01:24:16;95771.22;;;15.36;90.26
14067;BME280;7108;42.684;23.350;2022-07-12T01:26:43;95760.28;;;15.29;90.96
14067;BME280;7108;42.684;23.350;2022-07-12T01:29:08;95770.75;;;15.30;90.08
14067;BME280;7108;42.684;23.350;2022-07-12T01:31:35;95770.78;;;15.34;90.23
14067;BME280;7108;42.684;23.350;2022-07-12T01:34:02;95768.50;;;15.36;91.15
14067;BME280;7108;42.684;23.350;2022-07-12T01:36:28;95764.91;;;15.25;91.67
14067;BME280;7108;42.684;23.350;2022-07-12T01:38:53;95776.19;;;15.30;92.09
14067;BME280;7108;42.684;23.350;2022-07-12T01:41:19;95770.38;;;15.28;92.81
14067;BME280;7108;42.684;23.350;2022-07-12T01:43:47;95767.22;;;15.26;93.55
14067;BME280;7108;42.684;23.350;2022-07-12T01:46:13;95759.34;;;15.18;94.15
14067;BME280;7108;42.684;23.350;2022-07-12T01:48:38;95763.56;;;15.12;94.42
14067;BME280;7108;42.684;23.350;2022-07-12T01:51:04;95765.66;;;15.25;93.08
14067;BME280;7108;42.684;23.350;2022-07-12T01:53:30;95763.94;;;15.10;91.70
14067;BME280;7108;42.684;23.350;2022-07-12T01:55:56;95760.44;;;15.10;91.47
14067;BME280;7108;42.684;23.350;2022-07-12T01:58:21;95765.53;;;15.15;92.06
14067;BME280;7108;42.684;23.350;2022-07-12T02:00:48;95767.78;;;15.09;92.63
14067;BME280;7108;42.684;23.350;2022-07-12T02:03:18;95765.53;;;15.15;91.71
14067;BME280;7108;42.684;23.350;2022-07-12T02:05:43;95765.88;;;15.10;91.44
14067;BME280;7108;42.684;23.350;2022-07-12T02:08:09;95758.03;;;15.02;91.56
14067;BME280;7108;42.684;23.350;2022-07-12T02:10:34;95761.13;;;15.00;91.01
14067;BME280;7108;42.684;23.350;2022-07-12T02:13:04;95768.88;;;15.02;92.65
14067;BME280;7108;42.684;23.350;2022-07-12T02:15:29;95761.84;;;14.97;92.21
14067;BME280;7108;42.684;23.350;2022-07-12T02:17:56;95757.56;;;14.93;92.02
14067;BME280;7108;42.684;23.350;2022-07-12T02:20:22;95760.22;;;14.89;92.09
14067;BME280;7108;42.684;23.350;2022-07-12T02:22:47;95770.31;;;14.92;93.74
14067;BME280;7108;42.684;23.350;2022-07-12T02:25:13;95758.63;;;14.85;94.64
14067;BME280;7108;42.684;23.350;2022-07-12T02:27:39;95762.47;;;14.84;94.91
14067;BME280;7108;42.684;23.350;2022-07-12T02:30:09;95760.09;;;14.79;94.76
14067;BME280;7108;42.684;23.350;2022-07-12T02:32:35;95772.47;;;14.76;95.86
14067;BME280;7108;42.684;23.350;2022-07-12T02:35:02;95766.66;;;14.78;95.35
14067;BME280;7108;42.684;23.350;2022-07-12T02:37:27;95759.66;;;14.73;95.03
14067;BME280;7108;42.684;23.350;2022-07-12T02:39:53;95771.75;;;14.79;95.60
14067;BME280;7108;42.684;23.350;2022-07-12T02:42:38;95773.63;;;14.75;97.16
14067;BME280;7108;42.684;23.350;2022-07-12T02:45:05;95762.25;;;14.63;96.91
14067;BME280;7108;42.684;23.350;2022-07-12T02:47:30;95764.59;;;14.64;96.83
14067;BME280;7108;42.684;23.350;2022-07-12T02:49:57;95765.31;;;14.61;97.67
14067;BME280;7108;42.684;23.350;2022-07-12T02:52:23;95777.78;;;14.66;97.93
14067;BME280;7108;42.684;23.350;2022-07-12T02:54:48;95780.88;;;14.64;97.69
14067;BME280;7108;42.684;23.350;2022-07-12T02:57:14;95776.19;;;14.61;98.17
14067;BME280;7108;42.684;23.350;2022-07-12T02:59:39;95777.25;;;14.53;99.49
14067;BME280;7108;42.684;23.350;2022-07-12T03:02:05;95777.63;;;14.55;98.53
14067;BME280;7108;42.684;23.350;2022-07-12T03:04:30;95777.97;;;14.50;99.21
14067;BME280;7108;42.684;23.350;2022-07-12T03:06:56;95787.28;;;14.53;98.50
14067;BME280;7108;42.684;23.350;2022-07-12T03:09:21;95783.72;;;14.45;99.69
14067;BME280;7108;42.684;23.350;2022-07-12T03:11:47;95793.91;;;14.55;98.97
14067;BME280;7108;42.684;23.350;2022-07-12T03:14:12;95786.03;;;14.43;98.79
14067;BME280;7108;42.684;23.350;2022-07-12T03:16:38;95791.84;;;14.45;100.00
14067;BME280;7108;42.684;23.350;2022-07-12T03:19:04;95798.84;;;14.46;100.00
14067;BME280;7108;42.684;23.350;2022-07-12T03:21:29;95807.09;;;14.53;100.00
14067;BME280;7108;42.684;23.350;2022-07-12T03:23:55;95814.03;;;14.51;100.00
14067;BME280;7108;42.684;23.350;2022-07-12T03:26:21;95798.53;;;14.51;100.00
14067;BME280;7108;42.684;23.350;2022-07-12T03:28:47;95809.00;;;14.53;100.00
14067;BME280;7108;42.684;23.350;2022-07-12T03:31:12;95791.84;;;14.45;100.00
14067;BME280;7108;42.684;23.350;2022-07-12T03:33:38;95789.97;;;14.49;100.00
14067;BME280;7108;42.684;23.350;2022-07-12T03:36:03;95799.75;;;14.57;100.00
14067;BME280;7108;42.684;23.350;2022-07-12T03:38:32;95808.78;;;14.65;100.00
14067;BME280;7108;42.684;23.350;2022-07-12T03:40:57;95809.53;;;14.65;100.00
14067;BME280;7108;42.684;23.350;2022-07-12T03:43:22;95807.94;;;14.61;100.00
14067;BME280;7108;42.684;23.350;2022-07-12T03:45:48;95813.88;;;14.70;99.68
14067;BME280;7108;42.684;23.350;2022-07-12T03:48:13;95803.75;;;14.67;96.19
14067;BME280;7108;42.684;23.350;2022-07-12T03:50:39;95813.53;;;14.75;95.17
14067;BME280;7108;42.684;23.350;2022-07-12T03:53:05;95813.16;;;14.76;92.25
14067;BME280;7108;42.684;23.350;2022-07-12T03:55:30;95817.81;;;14.76;90.31
14067;BME280;7108;42.684;23.350;2022-07-12T03:57:56;95806.50;;;14.70;89.63
14067;BME280;7108;42.684;23.350;2022-07-12T04:00:22;95822.53;;;14.82;88.96
14067;BME280;7108;42.684;23.350;2022-07-12T04:02:47;95805.41;;;14.75;87.60
14067;BME280;7108;42.684;23.350;2022-07-12T04:05:13;95826.44;;;14.85;86.90
14067;BME280;7108;42.684;23.350;2022-07-12T04:07:39;95820.97;;;14.81;86.28
14067;BME280;7108;42.684;23.350;2022-07-12T04:10:05;95834.53;;;14.81;83.11
14067;BME280;7108;42.684;23.350;2022-07-12T04:12:31;95830.59;;;14.75;83.97
14067;BME280;7108;42.684;23.350;2022-07-12T04:14:56;95822.09;;;14.77;85.97
14067;BME280;7108;42.684;23.350;2022-07-12T04:17:22;95827.53;;;14.77;86.73
14067;BME280;7108;42.684;23.350;2022-07-12T04:19:47;95818.16;;;14.71;87.10
14067;BME280;7108;42.684;23.350;2022-07-12T04:22:13;95825.88;;;14.69;86.36
14067;BME280;7108;42.684;23.350;2022-07-12T04:24:38;95843.09;;;14.83;87.23
14067;BME280;7108;42.684;23.350;2022-07-12T04:27:04;95842.00;;;14.88;86.28
14067;BME280;7108;42.684;23.350;2022-07-12T04:29:29;95845.13;;;14.90;85.72
14067;BME280;7108;42.684;23.350;2022-07-12T04:31:55;95845.13;;;14.90;84.52
14067;BME280;7108;42.684;23.350;2022-07-12T04:34:20;95837.69;;;14.83;84.20
14067;BME280;7108;42.684;23.350;2022-07-12T04:36:46;95842.00;;;14.88;83.91
14067;BME280;7108;42.684;23.350;2022-07-12T04:39:13;95845.22;;;14.97;84.12
14067;BME280;7108;42.684;23.350;2022-07-12T04:41:39;95855.25;;;14.93;83.66
14067;BME280;7108;42.684;23.350;2022-07-12T04:44:06;95856.13;;;15.00;83.67
14067;BME280;7108;42.684;23.350;2022-07-12T04:46:32;95853.78;;;15.02;83.09
14067;BME280;7108;42.684;23.350;2022-07-12T04:48:57;95855.31;;;15.00;82.95
14067;BME280;7108;42.684;23.350;2022-07-12T04:51:23;95851.88;;;15.03;82.76
14067;BME280;7108;42.684;23.350;2022-07-12T04:53:48;95858.94;;;15.10;82.03
14067;BME280;7108;42.684;23.350;2022-07-12T04:56:13;95852.41;;;15.15;81.54
14067;BME280;7108;42.684;23.350;2022-07-12T04:58:39;95852.00;;;15.13;81.97
14067;BME280;7108;42.684;23.350;2022-07-12T05:01:05;95851.66;;;15.18;82.17
14067;BME280;7108;42.684;23.350;2022-07-12T05:03:30;95852.16;;;15.23;82.43
14067;BME280;7108;42.684;23.350;2022-07-12T05:05:56;95851.44;;;15.30;82.18
14067;BME280;7108;42.684;23.350;2022-07-12T05:08:22;95846.72;;;15.23;81.67
14067;BME280;7108;42.684;23.350;2022-07-12T05:10:47;95852.63;;;15.32;81.63
14067;BME280;7108;42.684;23.350;2022-07-12T05:13:13;95853.06;;;15.38;81.08
14067;BME280;7108;42.684;23.350;2022-07-12T05:15:39;95845.75;;;15.42;82.38
14067;BME280;7108;42.684;23.350;2022-07-12T05:18:04;95827.84;;;15.37;82.01
14067;BME280;7108;42.684;23.350;2022-07-12T05:20:30;95838.84;;;15.48;81.50
14067;BME280;7108;42.684;23.350;2022-07-12T05:22:59;95830.69;;;15.48;80.76
14067;BME280;7108;42.684;23.350;2022-07-12T05:25:24;95849.88;;;15.69;81.13
14067;BME280;7108;42.684;23.350;2022-07-12T05:27:50;95849.16;;;15.72;80.43
14067;BME280;7108;42.684;23.350;2022-07-12T05:30:16;95837.16;;;15.76;80.79
14067;BME280;7108;42.684;23.350;2022-07-12T05:32:42;95854.75;;;15.92;79.53
14067;BME280;7108;42.684;23.350;2022-07-12T05:35:07;95848.56;;;15.95;79.28
14067;BME280;7108;42.684;23.350;2022-07-12T05:37:33;95852.06;;;15.92;78.54
14067;BME280;7108;42.684;23.350;2022-07-12T05:40:02;95841.19;;;15.92;78.36
14067;BME280;7108;42.684;23.350;2022-07-12T05:42:28;95847.88;;;16.05;77.98
14067;BME280;7108;42.684;23.350;2022-07-12T05:44:53;95832.31;;;16.02;78.76
14067;BME280;7108;42.684;23.350;2022-07-12T05:47:19;95851.09;;;16.18;77.70
14067;BME280;7108;42.684;23.350;2022-07-12T05:49:44;95832.53;;;16.27;74.88
14067;BME280;7108;42.684;23.350;2022-07-12T05:52:09;95843.09;;;16.39;76.47
14067;BME280;7108;42.684;23.350;2022-07-12T05:54:53;95840.69;;;16.27;76.43
14067;BME280;7108;42.684;23.350;2022-07-12T05:57:19;95822.00;;;16.25;75.30
14067;BME280;7108;42.684;23.350;2022-07-12T05:59:47;95832.19;;;16.32;74.97
14067;BME280;7108;42.684;23.350;2022-07-12T06:02:13;95840.09;;;16.54;74.92
14067;BME280;7108;42.684;23.350;2022-07-12T06:04:39;95827.28;;;16.58;76.30
14067;BME280;7108;42.684;23.350;2022-07-12T06:07:04;95824.66;;;16.72;75.28
14067;BME280;7108;42.684;23.350;2022-07-12T06:09:33;95827.78;;;16.81;75.14
14067;BME280;7108;42.684;23.350;2022-07-12T06:11:59;95829.03;;;17.01;75.23
14067;BME280;7108;42.684;23.350;2022-07-12T06:14:24;95828.66;;;17.02;73.83
14067;BME280;7108;42.684;23.350;2022-07-12T06:16:50;95825.94;;;17.02;71.98
14067;BME280;7108;42.684;23.350;2022-07-12T06:19:15;95822.47;;;17.15;72.69
14067;BME280;7108;42.684;23.350;2022-07-12T06:21:40;95825.22;;;17.19;72.59
14067;BME280;7108;42.684;23.350;2022-07-12T06:24:06;95821.78;;;17.32;71.53
14067;BME280;7108;42.684;23.350;2022-07-12T06:26:31;95797.97;;;17.19;68.66
14067;BME280;7108;42.684;23.350;2022-07-12T06:28:57;95819.47;;;17.34;68.68
14067;BME280;7108;42.684;23.350;2022-07-12T06:31:22;95821.81;;;17.46;69.71
14067;BME280;7108;42.684;23.350;2022-07-12T06:33:51;95810.94;;;17.57;67.47
14067;BME280;7108;42.684;23.350;2022-07-12T06:36:17;95813.69;;;17.60;66.60
14067;BME280;7108;42.684;23.350;2022-07-12T06:38:42;95807.81;;;17.58;67.10
14067;BME280;7108;42.684;23.350;2022-07-12T06:41:08;95809.34;;;17.49;65.15
14067;BME280;7108;42.684;23.350;2022-07-12T06:43:33;95824.94;;;17.62;67.19
14067;BME280;7108;42.684;23.350;2022-07-12T06:45:59;95816.78;;;17.76;66.87
14067;BME280;7108;42.684;23.350;2022-07-12T06:48:24;95811.34;;;17.83;63.99
14067;BME280;7108;42.684;23.350;2022-07-12T06:50:50;95811.34;;;17.66;63.63
14067;BME280;7108;42.684;23.350;2022-07-12T06:53:15;95802.78;;;17.60;63.24
14067;BME280;7108;42.684;23.350;2022-07-12T06:55:44;95810.56;;;17.62;62.55
14067;BME280;7108;42.684;23.350;2022-07-12T06:58:09;95801.59;;;17.65;64.72
14067;BME280;7108;42.684;23.350;2022-07-12T07:00:35;95798.88;;;17.72;63.94
14067;BME280;7108;42.684;23.350;2022-07-12T07:03:01;95806.31;;;17.88;63.90
14067;BME280;7108;42.684;23.350;2022-07-12T07:05:27;95796.53;;;17.80;59.92
14067;BME280;7108;42.684;23.350;2022-07-12T07:07:52;95795.00;;;17.90;59.18
14067;BME280;7108;42.684;23.350;2022-07-12T07:10:17;95805.50;;;18.09;59.14
14067;BME280;7108;42.684;23.350;2022-07-12T07:12:43;95793.81;;;18.08;57.90
14067;BME280;7108;42.684;23.350;2022-07-12T07:15:09;95791.84;;;18.09;58.24
14067;BME280;7108;42.684;23.350;2022-07-12T07:17:34;95780.94;;;18.09;57.43
14067;BME280;7108;42.684;23.350;2022-07-12T07:20:00;95806.28;;;18.34;57.32
14067;BME280;7108;42.684;23.350;2022-07-12T07:22:26;95803.94;;;18.39;56.35
14067;BME280;7108;42.684;23.350;2022-07-12T07:24:52;95797.66;;;18.56;54.41
14067;BME280;7108;42.684;23.350;2022-07-12T07:27:18;95795.69;;;18.60;54.01
14067;BME280;7108;42.684;23.350;2022-07-12T07:29:43;95787.50;;;18.63;54.28
14067;BME280;7108;42.684;23.350;2022-07-12T07:32:28;95797.63;;;18.66;53.48
14067;BME280;7108;42.684;23.350;2022-07-12T07:34:53;95797.63;;;18.66;52.20
14067;BME280;7108;42.684;23.350;2022-07-12T07:37:19;95801.84;;;18.85;50.73
14067;BME280;7108;42.684;23.350;2022-07-12T07:39:44;95793.25;;;18.90;52.09
14067;BME280;7108;42.684;23.350;2022-07-12T07:42:09;95778.84;;;18.86;50.31
14067;BME280;7108;42.684;23.350;2022-07-12T07:44:35;95794.75;;;19.01;50.37
14067;BME280;7108;42.684;23.350;2022-07-12T07:47:01;95790.81;;;19.16;50.57
14067;BME280;7108;42.684;23.350;2022-07-12T07:49:29;95784.59;;;19.08;50.01
14067;BME280;7108;42.684;23.350;2022-07-12T07:51:55;95771.38;;;19.00;48.65
14067;BME280;7108;42.684;23.350;2022-07-12T07:54:20;95781.88;;;19.08;50.41
14067;BME280;7108;42.684;23.350;2022-07-12T07:56:46;95776.06;;;18.96;46.37
14067;BME280;7108;42.684;23.350;2022-07-12T07:59:11;95788.53;;;18.97;47.65
14067;BME280;7108;42.684;23.350;2022-07-12T08:01:37;95784.66;;;18.95;48.49
14067;BME280;7108;42.684;23.350;2022-07-12T08:04:14;95787.72;;;19.04;47.48
14067;BME280;7108;42.684;23.350;2022-07-12T08:06:40;95777.19;;;19.06;48.47
14067;BME280;7108;42.684;23.350;2022-07-12T08:09:05;95781.09;;;19.08;48.35
14067;BME280;7108;42.684;23.350;2022-07-12T08:11:31;95787.69;;;19.21;47.12
14067;BME280;7108;42.684;23.350;2022-07-12T08:13:56;95777.09;;;19.26;47.42
14067;BME280;7108;42.684;23.350;2022-07-12T08:16:22;95771.66;;;19.19;45.51
14067;BME280;7108;42.684;23.350;2022-07-12T08:18:48;95775.94;;;19.27;45.44
14067;BME280;7108;42.684;23.350;2022-07-12T08:21:13;95773.31;;;19.10;45.60
14067;BME280;7108;42.684;23.350;2022-07-12T08:23:39;95758.44;;;19.14;46.13
14067;BME280;7108;42.684;23.350;2022-07-12T08:26:04;95752.94;;;19.18;44.73
14067;BME280;7108;42.684;23.350;2022-07-12T08:28:30;95771.22;;;19.31;43.04
14067;BME280;7108;42.684;23.350;2022-07-12T08:30:55;95768.03;;;19.43;44.71
14067;BME280;7108;42.684;23.350;2022-07-12T08:33:21;95760.88;;;19.60;45.73
14067;BME280;7108;42.684;23.350;2022-07-12T08:35:46;95751.06;;;19.66;44.85
14067;BME280;7108;42.684;23.350;2022-07-12T08:38:12;95771.28;;;19.78;45.50
14067;BME280;7108;42.684;23.350;2022-07-12T08:40:38;95765.16;;;19.64;43.79
14067;BME280;7108;42.684;23.350;2022-07-12T08:43:03;95755.41;;;19.60;45.70
14067;BME280;7108;42.684;23.350;2022-07-12T08:45:29;95751.13;;;19.59;46.70
14067;BME280;7108;42.684;23.350;2022-07-12T08:47:54;95756.56;;;19.62;44.54
14067;BME280;7108;42.684;23.350;2022-07-12T08:50:21;95752.69;;;19.56;44.52
14067;BME280;7108;42.684;23.350;2022-07-12T08:52:51;95755.38;;;19.67;44.03
14067;BME280;7108;42.684;23.350;2022-07-12T08:55:34;95747.53;;;19.69;46.82
14067;BME280;7108;42.684;23.350;2022-07-12T08:58:14;95745.84;;;19.85;45.27
14067;BME280;7108;42.684;23.350;2022-07-12T09:00:40;95747.38;;;19.86;43.60
14067;BME280;7108;42.684;23.350;2022-07-12T09:03:05;95751.66;;;19.87;44.70
14067;BME280;7108;42.684;23.350;2022-07-12T09:05:33;95749.81;;;19.73;44.37
14067;BME280;7108;42.684;23.350;2022-07-12T09:08:07;95743.66;;;19.63;43.21
14067;BME280;7108;42.684;23.350;2022-07-12T09:10:34;95746.31;;;19.76;45.50
14067;BME280;7108;42.684;23.350;2022-07-12T09:12:59;95740.41;;;19.78;42.77
14067;BME280;7108;42.684;23.350;2022-07-12T09:15:25;95745.00;;;19.95;41.96
14067;BME280;7108;42.684;23.350;2022-07-12T09:18:04;95751.50;;;20.08;40.58
14067;BME280;7108;42.684;23.350;2022-07-12T09:20:31;95733.41;;;20.21;42.70
14067;BME280;7108;42.684;23.350;2022-07-12T09:23:05;95709.50;;;20.28;42.09
14067;BME280;7108;42.684;23.350;2022-07-12T09:25:31;95734.25;;;20.51;40.90
14067;BME280;7108;42.684;23.350;2022-07-12T09:28:03;95720.03;;;20.63;41.53
14067;BME280;7108;42.684;23.350;2022-07-12T09:30:29;95731.00;;;20.63;40.85
14067;BME280;7108;42.684;23.350;2022-07-12T09:32:58;95732.56;;;20.64;41.02
14067;BME280;7108;42.684;23.350;2022-07-12T09:38:54;95732.50;;;20.67;39.09
14067;BME280;7108;42.684;23.350;2022-07-12T09:41:20;95715.44;;;20.56;39.45
14067;BME280;7108;42.684;23.350;2022-07-12T09:43:46;95727.00;;;20.71;39.39
14067;BME280;7108;42.684;23.350;2022-07-12T09:46:16;95721.38;;;20.85;40.80
14067;BME280;7108;42.684;23.350;2022-07-12T09:48:42;95715.47;;;20.86;41.46
14067;BME280;7108;42.684;23.350;2022-07-12T09:51:09;95715.22;;;21.04;42.12
14067;BME280;7108;42.684;23.350;2022-07-12T09:53:43;95711.91;;;21.19;39.46
14067;BME280;7108;42.684;23.350;2022-07-12T09:56:11;95723.91;;;21.28;38.13
14067;BME280;7108;42.684;23.350;2022-07-12T09:58:39;95727.16;;;21.20;38.72
14067;BME280;7108;42.684;23.350;2022-07-12T10:01:07;95721.84;;;21.06;37.74
14067;BME280;7108;42.684;23.350;2022-07-12T10:03:32;95712.41;;;21.10;38.75
14067;BME280;7108;42.684;23.350;2022-07-12T10:06:01;95718.72;;;21.34;40.45
14067;BME280;7108;42.684;23.350;2022-07-12T10:08:27;95723.28;;;21.17;36.35
14067;BME280;7108;42.684;23.350;2022-07-12T10:10:54;95720.44;;;21.24;39.10
14067;BME280;7108;42.684;23.350;2022-07-12T10:13:20;95711.72;;;21.29;36.63
14067;BME280;7108;42.684;23.350;2022-07-12T10:15:47;95711.84;;;21.49;35.27
14067;BME280;7108;42.684;23.350;2022-07-12T10:18:20;95707.25;;;21.42;35.53
14067;BME280;7108;42.684;23.350;2022-07-12T10:20:47;95708.97;;;21.59;36.74
14067;BME280;7108;42.684;23.350;2022-07-12T10:25:44;95706.34;;;21.49;37.29
14067;BME280;7108;42.684;23.350;2022-07-12T10:28:10;95699.16;;;21.62;35.27
14067;BME280;7108;42.684;23.350;2022-07-12T10:30:47;95703.72;;;21.91;35.88
14067;BME280;7108;42.684;23.350;2022-07-12T10:33:23;95708.63;;;22.03;36.72
14067;BME280;7108;42.684;23.350;2022-07-12T10:36:06;95695.38;;;22.21;36.13
14067;BME280;7108;42.684;23.350;2022-07-12T10:38:34;95695.69;;;22.45;35.50
14067;BME280;7108;42.684;23.350;2022-07-12T10:41:21;95675.72;;;22.45;33.25
14067;BME280;7108;42.684;23.350;2022-07-12T10:44:04;95691.41;;;22.64;36.15
14067;BME280;7108;42.684;23.350;2022-07-12T10:46:30;95692.09;;;22.87;36.09
14067;BME280;7108;42.684;23.350;2022-07-12T10:49:25;95684.63;;;22.88;34.89
14067;BME280;7108;42.684;23.350;2022-07-12T10:54:39;95705.53;;;22.01;34.82
14067;BME280;7108;42.684;23.350;2022-07-12T10:57:06;95692.88;;;21.84;34.47
14067;BME280;7108;42.684;23.350;2022-07-12T10:59:36;95693.09;;;22.16;37.12
14067;BME280;7108;42.684;23.350;2022-07-12T11:02:03;95697.03;;;22.15;34.12
14067;BME280;7108;42.684;23.350;2022-07-12T11:04:28;95682.59;;;22.34;38.06
14067;BME280;7108;42.684;23.350;2022-07-12T11:06:55;95671.19;;;22.54;35.53
14067;BME280;7108;42.684;23.350;2022-07-12T11:09:23;95681.75;;;22.56;34.12
14067;BME280;7108;42.684;23.350;2022-07-12T11:11:50;95675.63;;;22.68;35.56
14067;BME280;7108;42.684;23.350;2022-07-12T11:14:27;95690.13;;;22.88;33.87
14067;BME280;7108;42.684;23.350;2022-07-12T11:16:56;95693.56;;;23.11;37.75
14067;BME280;7108;42.684;23.350;2022-07-12T11:19:24;95685.19;;;23.34;35.90
14067;BME280;7108;42.684;23.350;2022-07-12T11:21:50;95689.59;;;23.47;34.62
14067;BME280;7108;42.684;23.350;2022-07-12T11:24:26;95697.75;;;23.35;33.73
14067;BME280;7108;42.684;23.350;2022-07-12T11:26:52;95685.09;;;23.21;36.50
14067;BME280;7108;42.684;23.350;2022-07-12T11:29:18;95675.53;;;23.26;34.92
14067;BME280;7108;42.684;23.350;2022-07-12T11:31:45;95687.09;;;23.53;35.07
14067;BME280;7108;42.684;23.350;2022-07-12T11:34:21;95690.53;;;23.41;34.75
14067;BME280;7108;42.684;23.350;2022-07-12T11:36:47;95679.94;;;23.23;35.39
14067;BME280;7108;42.684;23.350;2022-07-12T11:39:15;95668.09;;;23.26;35.63
14067;BME280;7108;42.684;23.350;2022-07-12T11:41:54;95681.00;;;23.61;36.78
14067;BME280;7108;42.684;23.350;2022-07-12T11:44:20;95670.47;;;23.76;36.87
14067;BME280;7108;42.684;23.350;2022-07-12T11:46:49;95680.78;;;24.03;34.74
14067;BME280;7108;42.684;23.350;2022-07-12T11:49:15;95676.44;;;23.55;33.36
14067;BME280;7108;42.684;23.350;2022-07-12T11:51:41;95678.22;;;23.29;33.82
14067;BME280;7108;42.684;23.350;2022-07-12T11:54:07;95668.78;;;23.30;33.65
14067;BME280;7108;42.684;23.350;2022-07-12T11:56:32;95667.16;;;23.33;34.48
14067;BME280;7108;42.684;23.350;2022-07-12T11:58:57;95670.19;;;23.03;32.57
14067;BME280;7108;42.684;23.350;2022-07-12T12:01:24;95670.94;;;23.04;34.40
14067;BME280;7108;42.684;23.350;2022-07-12T12:03:51;95667.78;;;22.86;34.22
14067;BME280;7108;42.684;23.350;2022-07-12T12:06:17;95661.00;;;22.55;34.79
14067;BME280;7108;42.684;23.350;2022-07-12T12:08:43;95669.22;;;22.55;34.46
14067;BME280;7108;42.684;23.350;2022-07-12T12:11:10;95658.09;;;22.43;33.66
14067;BME280;7108;42.684;23.350;2022-07-12T12:13:35;95654.94;;;22.44;33.27
14067;BME280;7108;42.684;23.350;2022-07-12T12:16:03;95658.16;;;22.58;32.59
14067;BME280;7108;42.684;23.350;2022-07-12T12:21:25;95666.00;;;22.95;35.43
14067;BME280;7108;42.684;23.350;2022-07-12T12:24:08;95668.00;;;22.95;33.98
14067;BME280;7108;42.684;23.350;2022-07-12T12:26:34;95640.38;;;22.82;34.39
14067;BME280;7108;42.684;23.350;2022-07-12T12:28:59;95653.13;;;22.92;35.28
14067;BME280;7108;42.684;23.350;2022-07-12T12:31:27;95664.63;;;22.87;34.55
14067;BME280;7108;42.684;23.350;2022-07-12T12:33:54;95642.88;;;22.57;34.99
14067;BME280;7108;42.684;23.350;2022-07-12T12:36:26;95656.69;;;22.73;34.87
14067;BME280;7108;42.684;23.350;2022-07-12T12:38:54;95659.25;;;22.80;34.80
14067;BME280;7108;42.684;23.350;2022-07-12T12:41:21;95650.00;;;22.90;34.38
14067;BME280;7108;42.684;23.350;2022-07-12T12:44:04;95660.75;;;22.85;34.51
14067;BME280;7108;42.684;23.350;2022-07-12T12:49:47;95651.94;;;22.74;34.54
14067;BME280;7108;42.684;23.350;2022-07-12T12:52:14;95658.50;;;22.80;34.70
14067;BME280;7108;42.684;23.350;2022-07-12T12:54:39;95648.19;;;22.84;34.64
14067;BME280;7108;42.684;23.350;2022-07-12T12:57:07;95656.44;;;23.03;35.68
14067;BME280;7108;42.684;23.350;2022-07-12T12:59:32;95646.72;;;22.79;35.38
14067;BME280;7108;42.684;23.350;2022-07-12T13:01:58;95655.44;;;22.94;35.77
14067;BME280;7108;42.684;23.350;2022-07-12T13:04:34;95652.44;;;22.49;34.99
14067;BME280;7108;42.684;23.350;2022-07-12T13:07:00;95638.72;;;22.49;35.42
14067;BME280;7108;42.684;23.350;2022-07-12T13:09:27;95648.44;;;22.35;35.50
14067;BME280;7108;42.684;23.350;2022-07-12T13:11:52;95648.31;;;22.19;34.90
14067;BME280;7108;42.684;23.350;2022-07-12T13:14:18;95644.19;;;22.30;36.46